sensor_id;sensor_type;location;lat;lon;timestamp;pressure;altitude;pressure_sealevel;temperature
80680;BMP280;70043;51.982;-8.514;2024-03-23T00:53:30;99937.75;;;6.82
80680;BMP280;70043;51.982;-8.514;2024-03-23T00:55:57;99931.22;;;6.87
80680;BMP280;70043;51.982;-8.514;2024-03-23T00:58:23;99924.25;;;6.89
80680;BMP280;70043;51.982;-8.514;2024-03-23T01:00:50;99926.94;;;6.88
80680;BMP280;70043;51.982;-8.514;2024-03-23T01:03:16;99923.44;;;6.89
80680;BMP280;70043;51.982;-8.514;2024-03-23T01:05:43;99917.59;;;6.88
80680;BMP280;70043;51.982;-8.514;2024-03-23T01:08:09;99917.94;;;6.93
80680;BMP280;70043;51.982;-8.514;2024-03-23T01:10:37;99918.06;;;6.92
80680;BMP280;70043;51.982;-8.514;2024-03-23T01:13:03;99917.44;;;6.90
80680;BMP280;70043;51.982;-8.514;2024-03-23T01:15:30;99905.84;;;6.87
80680;BMP280;70043;51.982;-8.514;2024-03-23T01:17:56;99904.09;;;6.88
80680;BMP280;70043;51.982;-8.514;2024-03-23T01:20:23;99910.91;;;6.87
80680;BMP280;70043;51.982;-8.514;2024-03-23T01:22:49;99902.38;;;6.88
80680;BMP280;70043;51.982;-8.514;2024-03-23T01:25:16;99900.31;;;6.84
80680;BMP280;70043;51.982;-8.514;2024-03-23T01:27:43;99909.03;;;6.81
80680;BMP280;70043;51.982;-8.514;2024-03-23T01:30:10;99904.75;;;6.73
80680;BMP280;70043;51.982;-8.514;2024-03-23T01:32:36;99905.56;;;6.66
80680;BMP280;70043;51.982;-8.514;2024-03-23T01:35:03;99901.09;;;6.68
80680;BMP280;70043;51.982;-8.514;2024-03-23T01:37:29;99904.41;;;6.60
80680;BMP280;70043;51.982;-8.514;2024-03-23T01:39:56;99903.16;;;6.56
80680;BMP280;70043;51.982;-8.514;2024-03-23T01:42:22;99890.78;;;6.45
80680;BMP280;70043;51.982;-8.514;2024-03-23T01:44:50;99885.25;;;6.42
80680;BMP280;70043;51.982;-8.514;2024-03-23T01:47:16;99881.44;;;6.38
80680;BMP280;70043;51.982;-8.514;2024-03-23T01:49:43;99866.38;;;6.36
80680;BMP280;70043;51.982;-8.514;2024-03-23T01:52:09;99866.06;;;6.39
80680;BMP280;70043;51.982;-8.514;2024-03-23T01:54:36;99871.13;;;6.39
80680;BMP280;70043;51.982;-8.514;2024-03-23T01:57:04;99872.09;;;6.46
80680;BMP280;70043;51.982;-8.514;2024-03-23T01:59:31;99865.44;;;6.53
80680;BMP280;70043;51.982;-8.514;2024-03-23T02:01:58;99875.25;;;6.56
80680;BMP280;70043;51.982;-8.514;2024-03-23T02:04:26;99864.50;;;6.54
80680;BMP280;70043;51.982;-8.514;2024-03-23T02:06:52;99850.09;;;6.55
80680;BMP280;70043;51.982;-8.514;2024-03-23T02:09:19;99845.81;;;6.55
80680;BMP280;70043;51.982;-8.514;2024-03-23T02:11:45;99841.81;;;6.61
80680;BMP280;70043;51.982;-8.514;2024-03-23T02:14:12;99842.28;;;6.56
80680;BMP280;70043;51.982;-8.514;2024-03-23T02:16:38;99839.56;;;6.58
80680;BMP280;70043;51.982;-8.514;2024-03-23T02:19:07;99837.22;;;6.56
80680;BMP280;70043;51.982;-8.514;2024-03-23T02:21:32;99841.69;;;6.54
80680;BMP280;70043;51.982;-8.514;2024-03-23T02:24:01;99845.81;;;6.55
80680;BMP280;70043;51.982;-8.514;2024-03-23T02:26:27;99845.81;;;6.55
80680;BMP280;70043;51.982;-8.514;2024-03-23T02:28:54;99846.91;;;6.53
80680;BMP280;70043;51.982;-8.514;2024-03-23T02:31:20;99839.75;;;6.56
80680;BMP280;70043;51.982;-8.514;2024-03-23T02:33:47;99836.91;;;6.59
80680;BMP280;70043;51.982;-8.514;2024-03-23T02:36:12;99839.56;;;6.58
80680;BMP280;70043;51.982;-8.514;2024-03-23T02:38:39;99848.50;;;6.54
80680;BMP280;70043;51.982;-8.514;2024-03-23T02:41:07;99852.78;;;6.53
80680;BMP280;70043;51.982;-8.514;2024-03-23T02:43:34;99857.84;;;6.53
80680;BMP280;70043;51.982;-8.514;2024-03-23T02:46:00;99857.81;;;6.45
80680;BMP280;70043;51.982;-8.514;2024-03-23T02:48:28;99833.75;;;6.41
80680;BMP280;70043;51.982;-8.514;2024-03-23T02:50:54;99835.63;;;6.39
80680;BMP280;70043;51.982;-8.514;2024-03-23T02:53:21;99827.72;;;6.42
80680;BMP280;70043;51.982;-8.514;2024-03-23T02:55:47;99828.19;;;6.46
80680;BMP280;70043;51.982;-8.514;2024-03-23T02:58:15;99818.84;;;6.46
80680;BMP280;70043;51.982;-8.514;2024-03-23T03:00:41;99807.44;;;6.42
80680;BMP280;70043;51.982;-8.514;2024-03-23T03:03:08;99809.81;;;6.35
80680;BMP280;70043;51.982;-8.514;2024-03-23T03:05:34;99797.59;;;6.31
80680;BMP280;70043;51.982;-8.514;2024-03-23T03:08:01;99789.69;;;6.34
80680;BMP280;70043;51.982;-8.514;2024-03-23T03:10:27;99793.97;;;6.42
80680;BMP280;70043;51.982;-8.514;2024-03-23T03:12:54;99796.50;;;6.50
80680;BMP280;70043;51.982;-8.514;2024-03-23T03:15:21;99805.84;;;6.57
80680;BMP280;70043;51.982;-8.514;2024-03-23T03:17:48;99801.41;;;6.59
80680;BMP280;70043;51.982;-8.514;2024-03-23T03:20:14;99782.69;;;6.60
80680;BMP280;70043;51.982;-8.514;2024-03-23T03:22:43;99771.31;;;6.56
80680;BMP280;70043;51.982;-8.514;2024-03-23T03:25:09;99761.34;;;6.55
80680;BMP280;70043;51.982;-8.514;2024-03-23T03:27:36;99754.03;;;6.52
80680;BMP280;70043;51.982;-8.514;2024-03-23T03:30:02;99770.84;;;6.45
80680;BMP280;70043;51.982;-8.514;2024-03-23T03:32:33;99765.94;;;6.43
80680;BMP280;70043;51.982;-8.514;2024-03-23T03:34:59;99762.78;;;6.41
80680;BMP280;70043;51.982;-8.514;2024-03-23T03:37:26;99768.47;;;6.43
80680;BMP280;70043;51.982;-8.514;2024-03-23T03:39:52;99758.31;;;6.51
80680;BMP280;70043;51.982;-8.514;2024-03-23T03:42:18;99758.47;;;6.50
80680;BMP280;70043;51.982;-8.514;2024-03-23T03:44:44;99761.19;;;6.48
80680;BMP280;70043;51.982;-8.514;2024-03-23T03:47:11;99749.13;;;6.50
80680;BMP280;70043;51.982;-8.514;2024-03-23T03:49:39;99762.94;;;6.56
80680;BMP280;70043;51.982;-8.514;2024-03-23T03:52:06;99762.75;;;6.57
80680;BMP280;70043;51.982;-8.514;2024-03-23T03:54:32;99748.66;;;6.55
80680;BMP280;70043;51.982;-8.514;2024-03-23T03:56:59;99747.88;;;6.54
80680;BMP280;70043;51.982;-8.514;2024-03-23T03:59:26;99739.75;;;6.59
80680;BMP280;70043;51.982;-8.514;2024-03-23T04:01:53;99738.34;;;6.56
80680;BMP280;70043;51.982;-8.514;2024-03-23T04:04:19;99739.47;;;6.54
80680;BMP280;70043;51.982;-8.514;2024-03-23T04:06:47;99728.19;;;6.56
80680;BMP280;70043;51.982;-8.514;2024-03-23T04:09:13;99728.19;;;6.64
80680;BMP280;70043;51.982;-8.514;2024-03-23T04:11:40;99720.59;;;6.64
80680;BMP280;70043;51.982;-8.514;2024-03-23T04:14:06;99722.63;;;6.61
80680;BMP280;70043;51.982;-8.514;2024-03-23T04:16:34;99717.25;;;6.64
80680;BMP280;70043;51.982;-8.514;2024-03-23T04:19:00;99727.69;;;6.69
80680;BMP280;70043;51.982;-8.514;2024-03-23T04:21:27;99711.22;;;6.73
80680;BMP280;70043;51.982;-8.514;2024-03-23T04:23:55;99708.16;;;6.77
80680;BMP280;70043;51.982;-8.514;2024-03-23T04:26:22;99709.63;;;6.72
80680;BMP280;70043;51.982;-8.514;2024-03-23T04:28:48;99711.66;;;6.76
80680;BMP280;70043;51.982;-8.514;2024-03-23T04:31:15;99720.06;;;6.77
80680;BMP280;70043;51.982;-8.514;2024-03-23T04:33:41;99717.53;;;6.77
80680;BMP280;70043;51.982;-8.514;2024-03-23T04:36:08;99709.44;;;6.82
80680;BMP280;70043;51.982;-8.514;2024-03-23T04:38:35;99705.78;;;6.84
80680;BMP280;70043;51.982;-8.514;2024-03-23T04:41:04;99708.63;;;6.89
80680;BMP280;70043;51.982;-8.514;2024-03-23T04:43:31;99703.88;;;6.94
80680;BMP280;70043;51.982;-8.514;2024-03-23T04:45:57;99701.31;;;6.94
80680;BMP280;70043;51.982;-8.514;2024-03-23T04:48:25;99696.69;;;6.98
80680;BMP280;70043;51.982;-8.514;2024-03-23T04:50:55;99700.00;;;6.98
80680;BMP280;70043;51.982;-8.514;2024-03-23T04:53:23;99696.03;;;6.96
80680;BMP280;70043;51.982;-8.514;2024-03-23T04:55:53;99693.72;;;6.94
80680;BMP280;70043;51.982;-8.514;2024-03-23T04:58:22;99685.47;;;6.92
80680;BMP280;70043;51.982;-8.514;2024-03-23T05:00:53;99680.41;;;6.84
80680;BMP280;70043;51.982;-8.514;2024-03-23T05:03:20;99680.41;;;6.84
80680;BMP280;70043;51.982;-8.514;2024-03-23T05:05:46;99684.88;;;6.82
80680;BMP280;70043;51.982;-8.514;2024-03-23T05:08:13;99683.09;;;6.83
80680;BMP280;70043;51.982;-8.514;2024-03-23T05:10:39;99682.59;;;6.87
80680;BMP280;70043;51.982;-8.514;2024-03-23T05:13:07;99668.53;;;6.85
80680;BMP280;70043;51.982;-8.514;2024-03-23T05:15:34;99671.41;;;6.82
80680;BMP280;70043;51.982;-8.514;2024-03-23T05:18:01;99675.50;;;6.83
80680;BMP280;70043;51.982;-8.514;2024-03-23T05:20:27;99668.06;;;6.81
80680;BMP280;70043;51.982;-8.514;2024-03-23T05:22:55;99677.28;;;6.82
80680;BMP280;70043;51.982;-8.514;2024-03-23T05:25:20;99674.88;;;6.81
80680;BMP280;70043;51.982;-8.514;2024-03-23T05:27:48;99678.38;;;6.80
80680;BMP280;70043;51.982;-8.514;2024-03-23T05:30:14;99677.28;;;6.74
80680;BMP280;70043;51.982;-8.514;2024-03-23T05:32:43;99677.75;;;6.69
80680;BMP280;70043;51.982;-8.514;2024-03-23T05:35:09;99662.53;;;6.69
80680;BMP280;70043;51.982;-8.514;2024-03-23T05:37:37;99657.78;;;6.74
80680;BMP280;70043;51.982;-8.514;2024-03-23T05:40:03;99649.22;;;6.75
80680;BMP280;70043;51.982;-8.514;2024-03-23T05:42:31;99650.19;;;6.74
80680;BMP280;70043;51.982;-8.514;2024-03-23T05:44:57;99642.56;;;6.74
80680;BMP280;70043;51.982;-8.514;2024-03-23T05:47:24;99644.16;;;6.75
80680;BMP280;70043;51.982;-8.514;2024-03-23T05:49:51;99651.13;;;6.73
80680;BMP280;70043;51.982;-8.514;2024-03-23T05:52:18;99653.97;;;6.78
80680;BMP280;70043;51.982;-8.514;2024-03-23T05:54:46;99653.16;;;6.78
80680;BMP280;70043;51.982;-8.514;2024-03-23T05:57:13;99664.09;;;6.78
80680;BMP280;70043;51.982;-8.514;2024-03-23T05:59:39;99667.59;;;6.77
80680;BMP280;70043;51.982;-8.514;2024-03-23T06:02:06;99662.53;;;6.77
80680;BMP280;70043;51.982;-8.514;2024-03-23T06:04:32;99650.84;;;6.68
80680;BMP280;70043;51.982;-8.514;2024-03-23T06:07:01;99638.31;;;6.67
80680;BMP280;70043;51.982;-8.514;2024-03-23T06:09:27;99642.00;;;6.64
80680;BMP280;70043;51.982;-8.514;2024-03-23T06:11:56;99646.56;;;6.61
80680;BMP280;70043;51.982;-8.514;2024-03-23T06:14:22;99648.63;;;6.65
80680;BMP280;70043;51.982;-8.514;2024-03-23T06:16:49;99649.69;;;6.71
80680;BMP280;70043;51.982;-8.514;2024-03-23T06:19:15;99657.78;;;6.74
80680;BMP280;70043;51.982;-8.514;2024-03-23T06:21:43;99646.69;;;6.75
80680;BMP280;70043;51.982;-8.514;2024-03-23T06:24:11;99651.94;;;6.74
80680;BMP280;70043;51.982;-8.514;2024-03-23T06:26:38;99651.78;;;6.75
80680;BMP280;70043;51.982;-8.514;2024-03-23T06:29:04;99646.69;;;6.75
80680;BMP280;70043;51.982;-8.514;2024-03-23T06:31:31;99638.44;;;6.82
80680;BMP280;70043;51.982;-8.514;2024-03-23T06:33:57;99644.72;;;6.86
80680;BMP280;70043;51.982;-8.514;2024-03-23T06:36:24;99637.63;;;6.81
80680;BMP280;70043;51.982;-8.514;2024-03-23T06:38:50;99646.34;;;6.78
80680;BMP280;70043;51.982;-8.514;2024-03-23T06:41:19;99650.31;;;6.81
80680;BMP280;70043;51.982;-8.514;2024-03-23T06:43:45;99640.97;;;6.82
80680;BMP280;70043;51.982;-8.514;2024-03-23T06:46:12;99628.28;;;6.82
80680;BMP280;70043;51.982;-8.514;2024-03-23T06:48:38;99607.06;;;6.74
80680;BMP280;70043;51.982;-8.514;2024-03-23T06:51:05;99615.50;;;6.67
80680;BMP280;70043;51.982;-8.514;2024-03-23T06:53:32;99613.88;;;6.74
80680;BMP280;70043;51.982;-8.514;2024-03-23T06:55:59;99615.63;;;6.73
80680;BMP280;70043;51.982;-8.514;2024-03-23T06:58:28;99602.94;;;6.73
80680;BMP280;70043;51.982;-8.514;2024-03-23T07:00:55;99605.47;;;6.73
80680;BMP280;70043;51.982;-8.514;2024-03-23T07:03:20;99605.63;;;6.80
80680;BMP280;70043;51.982;-8.514;2024-03-23T07:05:49;99608.00;;;6.82
80680;BMP280;70043;51.982;-8.514;2024-03-23T07:08:15;99610.78;;;6.87
80680;BMP280;70043;51.982;-8.514;2024-03-23T07:10:46;99623.66;;;6.85
80680;BMP280;70043;51.982;-8.514;2024-03-23T07:13:12;99631.56;;;6.90
80680;BMP280;70043;51.982;-8.514;2024-03-23T07:15:41;99629.50;;;6.94
80680;BMP280;70043;51.982;-8.514;2024-03-23T07:18:07;99622.31;;;6.97
80680;BMP280;70043;51.982;-8.514;2024-03-23T07:20:34;99627.22;;;6.99
80680;BMP280;70043;51.982;-8.514;2024-03-23T07:23:00;99630.28;;;6.94
80680;BMP280;70043;51.982;-8.514;2024-03-23T07:25:27;99626.97;;;6.86
80680;BMP280;70043;51.982;-8.514;2024-03-23T07:27:54;99634.91;;;6.83
80680;BMP280;70043;51.982;-8.514;2024-03-23T07:30:21;99625.41;;;6.85
80680;BMP280;70043;51.982;-8.514;2024-03-23T07:32:49;99617.13;;;6.91
80680;BMP280;70043;51.982;-8.514;2024-03-23T07:35:16;99609.78;;;6.96
80680;BMP280;70043;51.982;-8.514;2024-03-23T07:37:42;99616.44;;;6.97
80680;BMP280;70043;51.982;-8.514;2024-03-23T07:40:10;99611.69;;;7.02
80680;BMP280;70043;51.982;-8.514;2024-03-23T07:42:37;99615.25;;;7.07
80680;BMP280;70043;51.982;-8.514;2024-03-23T07:45:05;99620.66;;;7.12
80680;BMP280;70043;51.982;-8.514;2024-03-23T07:47:31;99602.81;;;7.20
80680;BMP280;70043;51.982;-8.514;2024-03-23T07:49:59;99607.06;;;7.28
80680;BMP280;70043;51.982;-8.514;2024-03-23T07:52:28;99612.78;;;7.30
80680;BMP280;70043;51.982;-8.514;2024-03-23T07:54:55;99617.47;;;7.33
80680;BMP280;70043;51.982;-8.514;2024-03-23T07:57:20;99626.03;;;7.40
80680;BMP280;70043;51.982;-8.514;2024-03-23T07:59:47;99612.94;;;7.43
80680;BMP280;70043;51.982;-8.514;2024-03-23T08:02:13;99599.84;;;7.54
80680;BMP280;70043;51.982;-8.514;2024-03-23T08:04:40;99603.66;;;7.58
80680;BMP280;70043;51.982;-8.514;2024-03-23T08:07:08;99611.03;;;7.68
80680;BMP280;70043;51.982;-8.514;2024-03-23T08:09:35;99607.34;;;7.71
80680;BMP280;70043;51.982;-8.514;2024-03-23T08:12:01;99614.28;;;7.77
80680;BMP280;70043;51.982;-8.514;2024-03-23T08:14:28;99602.16;;;7.79
80680;BMP280;70043;51.982;-8.514;2024-03-23T08:16:54;99612.09;;;7.74
80680;BMP280;70043;51.982;-8.514;2024-03-23T08:19:21;99621.13;;;7.76
80680;BMP280;70043;51.982;-8.514;2024-03-23T08:21:47;99643.13;;;7.84
80680;BMP280;70043;51.982;-8.514;2024-03-23T08:24:15;99640.56;;;7.84
80680;BMP280;70043;51.982;-8.514;2024-03-23T08:26:41;99613.69;;;7.75
80680;BMP280;70043;51.982;-8.514;2024-03-23T08:29:08;99614.88;;;7.64
80680;BMP280;70043;51.982;-8.514;2024-03-23T08:31:34;99627.75;;;7.62
80680;BMP280;70043;51.982;-8.514;2024-03-23T08:34:01;99627.00;;;7.54
80680;BMP280;70043;51.982;-8.514;2024-03-23T08:36:27;99628.34;;;7.50
80680;BMP280;70043;51.982;-8.514;2024-03-23T08:38:54;99633.50;;;7.56
80680;BMP280;70043;51.982;-8.514;2024-03-23T08:41:21;99635.41;;;7.54
80680;BMP280;70043;51.982;-8.514;2024-03-23T08:43:48;99633.16;;;7.59
80680;BMP280;70043;51.982;-8.514;2024-03-23T08:46:16;99619.16;;;7.63
80680;BMP280;70043;51.982;-8.514;2024-03-23T08:48:45;99613.72;;;7.67
80680;BMP280;70043;51.982;-8.514;2024-03-23T08:51:12;99615.75;;;7.71
80680;BMP280;70043;51.982;-8.514;2024-03-23T08:53:40;99618.22;;;7.79
80680;BMP280;70043;51.982;-8.514;2024-03-23T08:56:07;99630.41;;;7.84
80680;BMP280;70043;51.982;-8.514;2024-03-23T08:58:36;99599.94;;;7.84
80680;BMP280;70043;51.982;-8.514;2024-03-23T09:01:04;99601.03;;;7.81
80680;BMP280;70043;51.982;-8.514;2024-03-23T09:03:31;99587.22;;;7.84
80680;BMP280;70043;51.982;-8.514;2024-03-23T09:05:57;99589.03;;;7.90
80680;BMP280;70043;51.982;-8.514;2024-03-23T09:08:25;99586.00;;;7.94
80680;BMP280;70043;51.982;-8.514;2024-03-23T09:10:51;99599.16;;;7.98
80680;BMP280;70043;51.982;-8.514;2024-03-23T09:13:19;99599.91;;;7.98
80680;BMP280;70043;51.982;-8.514;2024-03-23T09:15:48;99584.16;;;8.03
80680;BMP280;70043;51.982;-8.514;2024-03-23T09:18:16;99576.38;;;8.04
80680;BMP280;70043;51.982;-8.514;2024-03-23T09:20:42;99570.41;;;8.12
80680;BMP280;70043;51.982;-8.514;2024-03-23T09:23:09;99566.97;;;8.20
80680;BMP280;70043;51.982;-8.514;2024-03-23T09:25:38;99567.72;;;8.35
80680;BMP280;70043;51.982;-8.514;2024-03-23T09:28:06;99584.75;;;8.49
80680;BMP280;70043;51.982;-8.514;2024-03-23T09:30:34;99579.59;;;8.64
80680;BMP280;70043;51.982;-8.514;2024-03-23T09:33:02;99595.53;;;8.72
80680;BMP280;70043;51.982;-8.514;2024-03-23T09:35:29;99585.34;;;8.72
80680;BMP280;70043;51.982;-8.514;2024-03-23T09:37:56;99599.13;;;8.78
80680;BMP280;70043;51.982;-8.514;2024-03-23T09:40:22;99598.41;;;8.84
80680;BMP280;70043;51.982;-8.514;2024-03-23T09:42:50;99591.34;;;8.79
80680;BMP280;70043;51.982;-8.514;2024-03-23T09:45:19;99592.09;;;8.80
80680;BMP280;70043;51.982;-8.514;2024-03-23T09:47:47;99590.16;;;8.82
80680;BMP280;70043;51.982;-8.514;2024-03-23T09:50:15;99598.19;;;8.79
80680;BMP280;70043;51.982;-8.514;2024-03-23T09:52:42;99597.94;;;8.80
80680;BMP280;70043;51.982;-8.514;2024-03-23T09:55:08;99597.19;;;8.80
80680;BMP280;70043;51.982;-8.514;2024-03-23T09:57:35;99601.50;;;8.79
80680;BMP280;70043;51.982;-8.514;2024-03-23T10:00:01;99590.75;;;8.84
80680;BMP280;70043;51.982;-8.514;2024-03-23T10:02:28;99586.28;;;8.86
80680;BMP280;70043;51.982;-8.514;2024-03-23T10:04:54;99593.19;;;8.92
80680;BMP280;70043;51.982;-8.514;2024-03-23T10:07:25;99580.91;;;8.96
80680;BMP280;70043;51.982;-8.514;2024-03-23T10:09:51;99576.16;;;8.92
80680;BMP280;70043;51.982;-8.514;2024-03-23T10:12:18;99589.53;;;9.01
80680;BMP280;70043;51.982;-8.514;2024-03-23T10:14:45;99588.06;;;9.07
80680;BMP280;70043;51.982;-8.514;2024-03-23T10:17:13;99584.41;;;9.16
80680;BMP280;70043;51.982;-8.514;2024-03-23T10:19:40;99595.97;;;9.18
80680;BMP280;70043;51.982;-8.514;2024-03-23T10:22:09;99605.31;;;9.32
80680;BMP280;70043;51.982;-8.514;2024-03-23T10:24:36;99612.25;;;9.45
80680;BMP280;70043;51.982;-8.514;2024-03-23T10:27:03;99618.56;;;9.49
80680;BMP280;70043;51.982;-8.514;2024-03-23T10:29:29;99625.59;;;9.47
80680;BMP280;70043;51.982;-8.514;2024-03-23T10:32:08;99620.75;;;9.52
80680;BMP280;70043;51.982;-8.514;2024-03-23T10:34:34;99593.91;;;9.56
80680;BMP280;70043;51.982;-8.514;2024-03-23T10:37:02;99602.94;;;9.59
80680;BMP280;70043;51.982;-8.514;2024-03-23T10:39:30;99594.31;;;9.53
80680;BMP280;70043;51.982;-8.514;2024-03-23T10:42:00;99589.41;;;9.58
80680;BMP280;70043;51.982;-8.514;2024-03-23T10:44:28;99587.44;;;9.54
80680;BMP280;70043;51.982;-8.514;2024-03-23T10:46:57;99573.13;;;9.53
80680;BMP280;70043;51.982;-8.514;2024-03-23T10:49:26;99574.47;;;9.49
80680;BMP280;70043;51.982;-8.514;2024-03-23T10:51:56;99581.94;;;9.57
80680;BMP280;70043;51.982;-8.514;2024-03-23T10:54:24;99586.09;;;9.64
80680;BMP280;70043;51.982;-8.514;2024-03-23T10:56:56;99581.28;;;9.76
80680;BMP280;70043;51.982;-8.514;2024-03-23T10:59:25;99583.97;;;9.96
80680;BMP280;70043;51.982;-8.514;2024-03-23T11:01:55;99595.97;;;10.08
80680;BMP280;70043;51.982;-8.514;2024-03-23T11:04:31;99581.16;;;10.32
80680;BMP280;70043;51.982;-8.514;2024-03-23T11:06:59;99577.56;;;10.19
80680;BMP280;70043;51.982;-8.514;2024-03-23T11:12:26;99583.75;;;10.45
80680;BMP280;70043;51.982;-8.514;2024-03-23T11:14:55;99587.81;;;10.33
80680;BMP280;70043;51.982;-8.514;2024-03-23T11:17:25;99597.06;;;10.34
80680;BMP280;70043;51.982;-8.514;2024-03-23T11:19:55;99594.31;;;10.42
80680;BMP280;70043;51.982;-8.514;2024-03-23T11:25:03;99612.50;;;10.80
80680;BMP280;70043;51.982;-8.514;2024-03-23T11:27:30;99623.06;;;10.83
80680;BMP280;70043;51.982;-8.514;2024-03-23T11:30:14;99619.53;;;10.64
80680;BMP280;70043;51.982;-8.514;2024-03-23T11:32:42;99596.94;;;10.61
80680;BMP280;70043;51.982;-8.514;2024-03-23T11:35:08;99581.81;;;10.60
80680;BMP280;70043;51.982;-8.514;2024-03-23T11:37:37;99598.88;;;10.66
80680;BMP280;70043;51.982;-8.514;2024-03-23T11:40:21;99579.06;;;10.68
80680;BMP280;70043;51.982;-8.514;2024-03-23T11:42:55;99591.84;;;10.61
80680;BMP280;70043;51.982;-8.514;2024-03-23T11:45:23;99596.94;;;10.68
80680;BMP280;70043;51.982;-8.514;2024-03-23T11:48:02;99576.34;;;10.76
80680;BMP280;70043;51.982;-8.514;2024-03-23T11:50:27;99569.09;;;10.80
80680;BMP280;70043;51.982;-8.514;2024-03-23T11:53:06;99583.44;;;10.87
80680;BMP280;70043;51.982;-8.514;2024-03-23T11:55:38;99586.00;;;10.81
80680;BMP280;70043;51.982;-8.514;2024-03-23T11:58:05;99575.19;;;10.92
80680;BMP280;70043;51.982;-8.514;2024-03-23T12:00:32;99582.47;;;11.01
80680;BMP280;70043;51.982;-8.514;2024-03-23T12:03:00;99590.72;;;11.16
80680;BMP280;70043;51.982;-8.514;2024-03-23T12:05:26;99586.56;;;11.22
80680;BMP280;70043;51.982;-8.514;2024-03-23T12:07:53;99583.66;;;11.18
80680;BMP280;70043;51.982;-8.514;2024-03-23T12:10:19;99584.41;;;11.26
80680;BMP280;70043;51.982;-8.514;2024-03-23T12:13:00;99594.47;;;11.27
80680;BMP280;70043;51.982;-8.514;2024-03-23T12:15:27;99590.34;;;11.19
80680;BMP280;70043;51.982;-8.514;2024-03-23T12:18:07;99591.47;;;11.30
80680;BMP280;70043;51.982;-8.514;2024-03-23T12:20:33;99598.75;;;11.46
80680;BMP280;70043;51.982;-8.514;2024-03-23T12:23:08;99589.25;;;11.66
80680;BMP280;70043;51.982;-8.514;2024-03-23T12:25:35;99593.78;;;11.71
80680;BMP280;70043;51.982;-8.514;2024-03-23T12:28:02;99585.88;;;11.79
80680;BMP280;70043;51.982;-8.514;2024-03-23T12:30:28;99584.91;;;11.80
80680;BMP280;70043;51.982;-8.514;2024-03-23T12:32:55;99578.41;;;11.78
80680;BMP280;70043;51.982;-8.514;2024-03-23T12:35:23;99577.00;;;11.82
80680;BMP280;70043;51.982;-8.514;2024-03-23T12:37:50;99573.22;;;11.97
80680;BMP280;70043;51.982;-8.514;2024-03-23T12:40:16;99581.63;;;12.04
80680;BMP280;70043;51.982;-8.514;2024-03-23T12:42:43;99566.72;;;12.33
80680;BMP280;70043;51.982;-8.514;2024-03-23T12:45:09;99570.97;;;12.21
80680;BMP280;70043;51.982;-8.514;2024-03-23T12:47:36;99581.47;;;12.37
80680;BMP280;70043;51.982;-8.514;2024-03-23T12:50:02;99572.38;;;12.48
80680;BMP280;70043;51.982;-8.514;2024-03-23T12:52:31;99573.72;;;12.57
80680;BMP280;70043;51.982;-8.514;2024-03-23T12:54:56;99578.63;;;12.52
80680;BMP280;70043;51.982;-8.514;2024-03-23T12:57:24;99583.75;;;12.52
80680;BMP280;70043;51.982;-8.514;2024-03-23T12:59:50;99586.03;;;12.67
80680;BMP280;70043;51.982;-8.514;2024-03-23T13:02:18;99588.41;;;12.61
80680;BMP280;70043;51.982;-8.514;2024-03-23T13:04:46;99605.47;;;12.74
80680;BMP280;70043;51.982;-8.514;2024-03-23T13:07:13;99606.59;;;12.78
80680;BMP280;70043;51.982;-8.514;2024-03-23T13:09:40;99622.31;;;12.64
80680;BMP280;70043;51.982;-8.514;2024-03-23T13:12:07;99604.56;;;12.62
80680;BMP280;70043;51.982;-8.514;2024-03-23T13:14:33;99613.34;;;12.48
80680;BMP280;70043;51.982;-8.514;2024-03-23T13:17:00;99613.69;;;12.51
80680;BMP280;70043;51.982;-8.514;2024-03-23T13:19:27;99620.06;;;12.42
80680;BMP280;70043;51.982;-8.514;2024-03-23T13:21:56;99623.22;;;12.38
80680;BMP280;70043;51.982;-8.514;2024-03-23T13:24:22;99609.59;;;12.44
80680;BMP280;70043;51.982;-8.514;2024-03-23T13:26:52;99619.25;;;12.42
80680;BMP280;70043;51.982;-8.514;2024-03-23T13:29:18;99621.09;;;12.35
80680;BMP280;70043;51.982;-8.514;2024-03-23T13:31:45;99639.66;;;12.17
80680;BMP280;70043;51.982;-8.514;2024-03-23T13:34:11;99640.84;;;12.14
80680;BMP280;70043;51.982;-8.514;2024-03-23T13:36:38;99662.94;;;11.96
80680;BMP280;70043;51.982;-8.514;2024-03-23T13:39:04;99656.91;;;11.77
80680;BMP280;70043;51.982;-8.514;2024-03-23T13:41:37;99641.19;;;11.60
80680;BMP280;70043;51.982;-8.514;2024-03-23T13:44:05;99630.22;;;11.47
80680;BMP280;70043;51.982;-8.514;2024-03-23T13:46:32;99627.81;;;11.39
80680;BMP280;70043;51.982;-8.514;2024-03-23T13:48:58;99631.00;;;11.34
80680;BMP280;70043;51.982;-8.514;2024-03-23T13:51:25;99631.19;;;11.33
80680;BMP280;70043;51.982;-8.514;2024-03-23T13:53:52;99622.91;;;11.31
80680;BMP280;70043;51.982;-8.514;2024-03-23T13:56:20;99614.91;;;11.27
80680;BMP280;70043;51.982;-8.514;2024-03-23T13:58:45;99611.38;;;11.28
80680;BMP280;70043;51.982;-8.514;2024-03-23T14:01:14;99604.88;;;11.26
80680;BMP280;70043;51.982;-8.514;2024-03-23T14:03:41;99606.44;;;11.33
80680;BMP280;70043;51.982;-8.514;2024-03-23T14:06:08;99600.72;;;11.38
80680;BMP280;70043;51.982;-8.514;2024-03-23T14:08:34;99585.38;;;11.38
80680;BMP280;70043;51.982;-8.514;2024-03-23T14:11:02;99598.34;;;11.49
80680;BMP280;70043;51.982;-8.514;2024-03-23T14:13:29;99590.59;;;11.82
80680;BMP280;70043;51.982;-8.514;2024-03-23T14:15:57;99603.16;;;11.90
80680;BMP280;70043;51.982;-8.514;2024-03-23T14:18:24;99595.84;;;12.00
80680;BMP280;70043;51.982;-8.514;2024-03-23T14:20:51;99601.75;;;11.94
80680;BMP280;70043;51.982;-8.514;2024-03-23T14:23:19;99614.75;;;11.99
80680;BMP280;70043;51.982;-8.514;2024-03-23T14:25:46;99617.31;;;11.99
80680;BMP280;70043;51.982;-8.514;2024-03-23T14:28:11;99609.59;;;12.06
80680;BMP280;70043;51.982;-8.514;2024-03-23T14:30:41;99607.34;;;12.23
80680;BMP280;70043;51.982;-8.514;2024-03-23T14:33:07;99607.41;;;12.16
80680;BMP280;70043;51.982;-8.514;2024-03-23T14:35:35;99617.59;;;12.23
80680;BMP280;70043;51.982;-8.514;2024-03-23T14:38:02;99624.53;;;12.16
80680;BMP280;70043;51.982;-8.514;2024-03-23T14:40:29;99617.72;;;11.90
80680;BMP280;70043;51.982;-8.514;2024-03-23T14:42:54;99619.50;;;11.83
80680;BMP280;70043;51.982;-8.514;2024-03-23T14:45:21;99616.94;;;11.89
80680;BMP280;70043;51.982;-8.514;2024-03-23T14:47:49;99618.72;;;11.76
80680;BMP280;70043;51.982;-8.514;2024-03-23T14:50:16;99608.94;;;11.73
80680;BMP280;70043;51.982;-8.514;2024-03-23T14:52:44;99604.78;;;11.78
80680;BMP280;70043;51.982;-8.514;2024-03-23T14:55:11;99607.53;;;11.83
80680;BMP280;70043;51.982;-8.514;2024-03-23T14:57:37;99601.38;;;11.91
80680;BMP280;70043;51.982;-8.514;2024-03-23T15:00:07;99603.88;;;12.04
80680;BMP280;70043;51.982;-8.514;2024-03-23T15:02:33;99603.81;;;12.17
80680;BMP280;70043;51.982;-8.514;2024-03-23T15:05:00;99599.69;;;12.23